createdAt,value
2022-09-28T00:00:53.717Z,99562.41
2022-09-28T00:06:18.789Z,99557.97
2022-09-28T00:11:40.482Z,99545.22
2022-09-28T00:17:02.100Z,99561.00
2022-09-28T00:22:23.798Z,99575.72
2022-09-28T00:27:50.171Z,99574.06
2022-09-28T00:33:11.847Z,99579.03
2022-09-28T00:38:33.492Z,99577.38
2022-09-28T00:44:27.133Z,99578.22
2022-09-28T00:49:59.975Z,99574.91
2022-09-28T00:55:29.347Z,99579.59
2022-09-28T01:00:51.158Z,99582.66
2022-09-28T01:06:20.662Z,99587.41
2022-09-28T01:11:43.232Z,99576.31
2022-09-28T01:22:53.978Z,99581.28
2022-09-28T01:28:18.391Z,99579.09
2022-09-28T01:33:46.007Z,99571.88
2022-09-28T01:39:33.276Z,99580.19
2022-09-28T01:45:00.896Z,99575.75
2022-09-28T01:50:26.201Z,99572.44
2022-09-28T01:55:52.762Z,99572.44
2022-09-28T02:01:21.507Z,99575.19
2022-09-28T02:06:49.325Z,99566.06
2022-09-28T02:12:16.366Z,99575.50
2022-09-28T02:17:38.282Z,99569.09
2022-09-28T02:23:02.953Z,99575.78
2022-09-28T02:28:24.583Z,99573.00
2022-09-28T02:33:47.688Z,99579.66
2022-09-28T02:39:17.897Z,99576.88
2022-09-28T02:44:50.605Z,99572.47
2022-09-28T02:50:29.907Z,99568.56
2022-09-28T02:56:13.080Z,99570.78
2022-09-28T03:01:45.985Z,99564.69
2022-09-28T03:07:26.022Z,99575.50
2022-09-28T03:12:49.167Z,99580.47
2022-09-28T03:18:11.082Z,99592.69
2022-09-28T03:23:33.298Z,99596.28
2022-09-28T03:28:54.942Z,99593.81
2022-09-28T03:34:16.564Z,99592.97
2022-09-28T03:39:38.259Z,99581.88
2022-09-28T03:44:59.958Z,99576.63
2022-09-28T03:50:21.685Z,99578.53
2022-09-28T03:55:43.386Z,99583.28
2022-09-28T04:01:10.758Z,99571.34
2022-09-28T04:06:34.597Z,99570.53
2022-09-28T04:12:03.836Z,99568.06
2022-09-28T04:17:26.071Z,99579.94
2022-09-28T04:22:47.751Z,99577.47
2022-09-28T04:28:28.306Z,99583.00
2022-09-28T04:33:50.006Z,99586.88
2022-09-28T04:39:13.199Z,99581.34
2022-09-28T04:44:34.846Z,99586.31
2022-09-28T04:49:56.587Z,99583.56
2022-09-28T04:55:18.306Z,99588.25
2022-09-28T05:00:40.319Z,99587.44
2022-09-28T05:06:01.996Z,99594.09
2022-09-28T05:11:24.245Z,99585.22
2022-09-28T05:16:46.039Z,99584.38
2022-09-28T05:22:11.544Z,99591.84
2022-09-28T05:27:33.191Z,99594.59
2022-09-28T05:32:54.867Z,99593.50
2022-09-28T05:38:16.532Z,99592.38
2022-09-28T05:43:38.675Z,99589.59
2022-09-28T05:49:00.571Z,99595.44
2022-09-28T05:54:22.243Z,99592.94
2022-09-28T05:59:43.996Z,99598.47
2022-09-28T06:05:06.043Z,99600.72
2022-09-28T06:10:28.803Z,99603.75
2022-09-28T06:15:50.583Z,99605.97
2022-09-28T06:21:13.628Z,99610.13
2022-09-28T06:26:35.252Z,99617.88
2022-09-28T06:31:56.976Z,99615.09
2022-09-28T06:37:18.689Z,99635.31
2022-09-28T06:42:40.414Z,99640.56
2022-09-28T06:48:03.085Z,99640.00
2022-09-28T06:53:24.771Z,99644.44
2022-09-28T06:58:46.466Z,99642.22
2022-09-28T07:04:08.148Z,99638.88
2022-09-28T07:09:33.135Z,99651.59
2022-09-28T07:14:57.622Z,99654.38
2022-09-28T07:20:19.865Z,99658.22
2022-09-28T07:25:45.668Z,99660.94
2022-09-28T07:31:07.941Z,99667.16
2022-09-28T07:36:30.443Z,99662.28
2022-09-28T07:41:56.754Z,99664.34
2022-09-28T07:47:30.878Z,99679.63
2022-09-28T07:52:58.651Z,99678.28
2022-09-28T07:58:20.934Z,99686.47
2022-09-28T08:03:48.066Z,99711.97
2022-09-28T08:09:09.872Z,99710.69
2022-09-28T08:14:34.461Z,99715.44
2022-09-28T08:20:14.464Z,99712.94
2022-09-28T08:25:38.357Z,99715.47
2022-09-28T08:31:03.786Z,99719.09
2022-09-28T08:36:25.431Z,99719.16
2022-09-28T08:42:12.304Z,99715.81
2022-09-28T08:48:23.383Z,99709.72
2022-09-28T08:53:54.014Z,99719.19
2022-09-28T08:59:27.176Z,99735.84
2022-09-28T09:04:51.734Z,99725.31
2022-09-28T09:10:35.567Z,99726.16
2022-09-28T09:16:19.301Z,99732.53
2022-09-28T09:21:58.437Z,99734.47
2022-09-28T09:27:40.271Z,99736.69
2022-09-28T09:33:11.132Z,99739.75
2022-09-28T09:39:14.554Z,99743.09
2022-09-28T09:45:01.530Z,99735.88
2022-09-28T09:50:47.942Z,99737.28
2022-09-28T09:56:26.899Z,99733.09
2022-09-28T10:01:49.261Z,99728.97
2022-09-28T10:07:20.899Z,99730.88
2022-09-28T10:12:42.600Z,99731.47
2022-09-28T10:18:10.718Z,99722.31
2022-09-28T10:23:36.328Z,99729.25
2022-09-28T10:29:01.420Z,99726.47
2022-09-28T10:34:29.289Z,99729.81
2022-09-28T10:39:55.966Z,99734.78
2022-09-28T10:45:23.395Z,99735.34
2022-09-28T10:50:58.930Z,99726.78
2022-09-28T10:56:22.491Z,99727.03
2022-09-28T11:01:44.317Z,99726.47
2022-09-28T11:07:25.000Z,99728.13
2022-09-28T11:12:48.631Z,99733.97
2022-09-28T11:18:25.011Z,99734.78
2022-09-28T11:24:19.249Z,99728.72
2022-09-28T11:29:43.466Z,99733.97
2022-09-28T11:35:05.897Z,99733.72
2022-09-28T11:40:27.570Z,99731.50
2022-09-28T11:46:01.634Z,99740.38
2022-09-28T11:51:36.471Z,99727.88
2022-09-28T11:57:02.013Z,99728.72
2022-09-28T12:02:49.833Z,99738.16
2022-09-28T12:08:29.123Z,99733.69
2022-09-28T12:13:54.145Z,99738.41
2022-09-28T12:19:21.830Z,99735.63
2022-09-28T12:24:47.789Z,99733.69
2022-09-28T12:30:19.537Z,99736.19
2022-09-28T12:35:59.297Z,99734.25
2022-09-28T12:42:05.739Z,99742.00
2022-09-28T12:47:54.158Z,99737.31
2022-09-28T12:53:30.063Z,99738.41
2022-09-28T12:59:29.117Z,99745.88
2022-09-28T13:05:24.076Z,99745.38
2022-09-28T13:10:52.897Z,99741.47
2022-09-28T13:16:33.868Z,99737.31
2022-09-28T13:22:13.547Z,99734.25
2022-09-28T13:27:40.686Z,99736.47
2022-09-28T13:33:05.666Z,99733.97
2022-09-28T13:38:27.273Z,99728.97
2022-09-28T13:44:06.775Z,99722.59
2022-09-28T13:49:37.279Z,99732.03
2022-09-28T13:55:11.091Z,99730.91
2022-09-28T14:00:46.666Z,99731.75
2022-09-28T14:06:20.537Z,99736.47
2022-09-28T14:12:46.234Z,99740.91
2022-09-28T14:18:29.649Z,99738.41
2022-09-28T14:24:09.337Z,99744.25
2022-09-28T14:29:34.546Z,99732.88
2022-09-28T14:35:00.945Z,99730.38
2022-09-28T14:40:49.572Z,99732.84
2022-09-28T14:46:11.824Z,99734.25
2022-09-28T14:51:35.517Z,99732.59
2022-09-28T14:57:23.182Z,99735.09
2022-09-28T15:02:50.062Z,99742.00
2022-09-28T15:08:12.192Z,99725.41
2022-09-28T15:13:34.118Z,99732.59
2022-09-28T15:19:13.485Z,99733.44
2022-09-28T15:24:35.307Z,99737.06
2022-09-28T15:30:00.730Z,99742.00
2022-09-28T15:35:27.166Z,99746.44
2022-09-28T15:40:49.099Z,99748.69
2022-09-28T15:46:15.703Z,99757.00
2022-09-28T15:51:52.904Z,99759.19
2022-09-28T15:57:33.052Z,99766.41
2022-09-28T16:03:22.496Z,99767.25
2022-09-28T16:08:46.687Z,99761.72
2022-09-28T16:14:24.021Z,99760.31
2022-09-28T16:19:48.746Z,99765.28
2022-09-28T16:25:20.148Z,99776.09
2022-09-28T16:31:00.359Z,99771.41
2022-09-28T16:36:23.398Z,99776.38
2022-09-28T16:41:59.750Z,99775.56
2022-09-28T16:47:21.395Z,99772.78
2022-09-28T16:53:02.394Z,99773.06
2022-09-28T16:58:25.295Z,99779.97
2022-09-28T17:03:48.933Z,99778.03
2022-09-28T17:09:13.019Z,99781.38
2022-09-28T17:14:34.774Z,99785.81
2022-09-28T17:19:59.100Z,99779.16
2022-09-28T17:25:23.114Z,99787.47
2022-09-28T17:30:45.050Z,99793.84
2022-09-28T17:36:07.264Z,99787.75
2022-09-28T17:41:29.131Z,99796.34
2022-09-28T17:46:51.212Z,99802.47
2022-09-28T17:52:13.289Z,99799.97
2022-09-28T17:57:34.952Z,99802.44
2022-09-28T18:02:58.583Z,99813.53
2022-09-28T18:08:21.338Z,99811.31
2022-09-28T18:13:46.068Z,99810.22
2022-09-28T18:19:07.853Z,99816.88
2022-09-28T18:24:30.039Z,99816.31
2022-09-28T18:29:51.750Z,99818.25
2022-09-28T18:35:13.485Z,99828.50
2022-09-28T18:40:36.229Z,99836.25
2022-09-28T18:45:58.075Z,99834.63
2022-09-28T18:51:20.678Z,99836.25
2022-09-28T18:56:42.340Z,99827.41
2022-09-28T19:02:04.867Z,99833.78
2022-09-28T19:07:27.294Z,99835.72
2022-09-28T19:12:49.035Z,99844.03
2022-09-28T19:18:10.670Z,99847.91
2022-09-28T19:23:33.130Z,99845.72
2022-09-28T19:28:58.474Z,99853.72
2022-09-28T19:34:20.375Z,99861.75
2022-09-28T19:39:42.191Z,99856.50
2022-09-28T19:45:10.974Z,99853.47
2022-09-28T19:50:33.097Z,99857.63
2022-09-28T19:55:56.761Z,99857.34
2022-09-28T20:01:18.493Z,99859.03
2022-09-28T20:06:40.817Z,99861.53
2022-09-28T20:12:02.544Z,99861.25
2022-09-28T20:17:24.283Z,99860.16
2022-09-28T20:22:46.219Z,99857.91
2022-09-28T20:28:08.026Z,99867.34
2022-09-28T20:33:31.128Z,99873.44
2022-09-28T20:38:54.468Z,99877.31
2022-09-28T20:44:16.251Z,99873.41
2022-09-28T20:49:38.066Z,99873.13
2022-09-28T20:54:59.705Z,99880.06
2022-09-28T21:00:21.509Z,99880.63
2022-09-28T21:05:43.348Z,99881.72
2022-09-28T21:11:05.022Z,99878.38
2022-09-28T21:16:28.893Z,99874.22
2022-09-28T21:21:51.399Z,99874.50
2022-09-28T21:27:13.056Z,99879.50
2022-09-28T21:32:35.390Z,99877.84
2022-09-28T21:37:57.590Z,99872.81
2022-09-28T21:43:19.247Z,99875.03
2022-09-28T21:48:41.107Z,99877.25
2022-09-28T21:54:02.759Z,99883.88
2022-09-28T21:59:25.229Z,99888.91
2022-09-28T22:04:47.150Z,99892.78
2022-09-28T22:10:13.432Z,99900.53
2022-09-28T22:15:35.267Z,99893.31
2022-09-28T22:21:09.946Z,99894.97
2022-09-28T22:26:33.787Z,99909.38
2022-09-28T22:32:02.180Z,99902.16
2022-09-28T22:37:26.011Z,99895.81
2022-09-28T22:42:47.693Z,99905.47
2022-09-28T22:48:10.266Z,99906.56
2022-09-28T22:53:33.341Z,99905.75
2022-09-28T22:58:55.314Z,99906.84
2022-09-28T23:04:16.933Z,99896.88
2022-09-28T23:09:38.598Z,99902.94
2022-09-28T23:15:00.237Z,99896.88
2022-09-28T23:20:22.469Z,99897.69
2022-09-28T23:25:44.137Z,99899.91
2022-09-28T23:31:18.511Z,99895.19
2022-09-28T23:36:40.970Z,99899.91
2022-09-28T23:42:03.226Z,99899.06
2022-09-28T23:47:24.851Z,99902.09
2022-09-28T23:52:48.320Z,99896.84
2022-09-28T23:58:11.818Z,99894.06
